Time;durP1;ratioP1;P1;durP2;ratioP2;P2;SDS_P1;SDS_P2;PMS_P1;PMS_P2;Temp;Humidity;BMP_temperature;BMP_pressure;BME280_temperature;BME280_humidity;BME280_pressure;Samples;Min_cycle;Max_cycle;Signal;HPM_P1;HPM_P2
2022/02/15 00:00:44;;;;;;;41.60;22.10;;;;;;;0.97;68.23;99706.16;130314;1268;106706;-75
2022/02/15 00:03:49;;;;;;;46.30;22.70;;;;;;;0.94;68.38;99704.58;130244;1268;107329;-74
2022/02/15 00:06:55;;;;;;;37.50;20.90;;;;;;;0.91;68.39;99701.13;130273;1267;108716;-76
2022/02/15 00:10:00;;;;;;;42.10;22.50;;;;;;;0.88;68.44;99701.36;130291;1268;107689;-76
2022/02/15 00:13:05;;;;;;;43.80;21.50;;;;;;;0.83;68.46;99697.83;130285;1268;107723;-75
2022/02/15 00:16:11;;;;;;;40.30;21.50;;;;;;;0.78;68.57;99698.15;130271;1268;107746;-74
2022/02/15 00:19:17;;;;;;;40.70;21.20;;;;;;;0.73;68.56;99696.07;130289;1268;107808;-74
2022/02/15 00:22:22;;;;;;;41.90;22.10;;;;;;;0.68;68.60;99694.98;130246;1268;107708;-73
2022/02/15 00:25:28;;;;;;;45.30;23.70;;;;;;;0.64;68.56;99698.78;130246;1268;108233;-73
2022/02/15 00:28:33;;;;;;;43.20;22.90;;;;;;;0.59;68.72;99700.33;130273;1268;108719;-74
2022/02/15 00:31:39;;;;;;;48.20;24.10;;;;;;;0.55;68.75;99697.94;130244;1268;107787;-75
2022/02/15 00:34:44;;;;;;;43.90;21.20;;;;;;;0.53;68.64;99694.90;130256;1268;106673;-74
2022/02/15 00:37:50;;;;;;;55.20;25.00;;;;;;;0.58;68.72;99697.23;130308;1268;108602;-76
2022/02/15 00:40:55;;;;;;;49.00;24.40;;;;;;;0.64;68.62;99693.86;130262;1268;107829;-75
2022/02/15 00:44:00;;;;;;;47.50;23.30;;;;;;;0.65;68.59;99691.85;130215;1268;107578;-75
2022/02/15 00:47:08;;;;;;;42.40;22.50;;;;;;;0.63;68.60;99692.69;130126;1268;108878;-75
2022/02/15 00:50:14;;;;;;;44.10;22.80;;;;;;;0.59;68.44;99691.73;130252;1268;108765;-75
2022/02/15 00:53:19;;;;;;;40.70;22.80;;;;;;;0.55;68.53;99689.92;130224;1268;107673;-74
2022/02/15 00:56:25;;;;;;;41.20;22.90;;;;;;;0.45;68.46;99690.73;130242;1268;107665;-73
2022/02/15 00:59:30;;;;;;;39.10;20.70;;;;;;;0.36;68.41;99689.75;130245;1268;105495;-74
2022/02/15 01:02:35;;;;;;;40.40;21.60;;;;;;;0.29;68.65;99692.15;130267;1268;107948;-75
2022/02/15 01:05:41;;;;;;;39.10;21.70;;;;;;;0.24;68.74;99691.77;130281;1268;108739;-75
2022/02/15 01:08:46;;;;;;;43.90;21.90;;;;;;;0.19;68.87;99690.02;130314;1268;107706;-74
2022/02/15 01:11:52;;;;;;;41.00;21.90;;;;;;;0.16;68.93;99688.14;130264;1268;108802;-73
2022/02/15 01:15:01;;;;;;;43.40;23.10;;;;;;;0.11;69.07;99687.07;130269;1267;107866;-75
2022/02/15 01:18:07;;;;;;;42.90;23.10;;;;;;;0.11;69.24;99686.20;130306;1268;107702;-72
2022/02/15 01:21:12;;;;;;;47.20;24.10;;;;;;;0.11;69.36;99681.81;130240;1268;107536;-72
2022/02/15 01:24:18;;;;;;;43.50;22.60;;;;;;;0.09;69.25;99679.14;130203;1268;108722;-75
2022/02/15 01:27:23;;;;;;;45.30;22.60;;;;;;;0.10;69.44;99676.42;130268;1268;108704;-75
2022/02/15 01:30:31;;;;;;;39.40;20.00;;;;;;;0.16;69.35;99674.67;130322;1268;108836;-75
2022/02/15 01:33:36;;;;;;;41.20;20.80;;;;;;;0.21;69.33;99675.23;130294;1268;107515;-75
2022/02/15 01:36:43;;;;;;;49.20;22.00;;;;;;;0.23;69.24;99670.85;130261;1268;108965;-76
2022/02/15 01:39:53;;;;;;;40.20;21.90;;;;;;;0.25;69.21;99663.74;130095;1268;107694;-74
2022/02/15 01:42:59;;;;;;;40.70;22.30;;;;;;;0.25;69.08;99661.82;130273;1268;107712;-77
2022/02/15 01:46:05;;;;;;;37.80;20.80;;;;;;;0.23;69.05;99660.33;130238;1268;107786;-77
2022/02/15 01:49:11;;;;;;;38.30;21.40;;;;;;;0.21;69.30;99653.84;130230;1268;108850;-75
2022/02/15 01:52:18;;;;;;;41.90;21.70;;;;;;;0.19;69.48;99652.27;130234;1268;107875;-76
2022/02/15 01:55:24;;;;;;;43.10;22.70;;;;;;;0.15;69.46;99648.83;130244;1267;107825;-76
2022/02/15 01:58:30;;;;;;;48.30;22.90;;;;;;;0.12;69.47;99645.73;130288;1268;107743;-76
2022/02/15 02:01:37;;;;;;;41.80;21.60;;;;;;;0.09;69.33;99642.42;130295;1268;108667;-74
2022/02/15 02:08:10;;;;;;;46.60;22.50;;;;;;;0.02;69.75;99641.86;130187;1268;107413;-78
2022/02/15 02:11:20;;;;;;;42.00;22.20;;;;;;;0.02;69.59;99639.41;130265;1268;108921;-76
2022/02/15 02:14:30;;;;;;;45.40;23.60;;;;;;;-0.00;69.68;99629.03;130293;1269;107760;-75
2022/02/15 02:17:36;;;;;;;45.10;22.70;;;;;;;-0.03;69.94;99627.77;130075;1269;109084;-76
2022/02/15 02:20:42;;;;;;;42.70;21.50;;;;;;;0.00;69.86;99625.65;130041;1269;107764;-75
2022/02/15 02:23:48;;;;;;;36.90;19.40;;;;;;;0.06;70.01;99628.10;129999;1269;108748;-76
2022/02/15 02:27:00;;;;;;;41.20;22.10;;;;;;;0.15;70.14;99630.27;129994;1269;106651;-77
2022/02/15 02:30:07;;;;;;;39.10;21.50;;;;;;;0.24;69.96;99627.09;129973;1269;107824;-78
2022/02/15 02:33:18;;;;;;;39.40;22.00;;;;;;;0.27;70.11;99630.91;129990;1269;107864;-75
2022/02/15 02:36:24;;;;;;;39.00;22.00;;;;;;;0.29;69.93;99628.47;130016;1269;107972;-76
2022/02/15 02:39:30;;;;;;;38.40;21.40;;;;;;;0.29;69.99;99626.70;130107;1269;108944;-76
2022/02/15 02:42:38;;;;;;;41.40;22.90;;;;;;;0.28;70.14;99631.34;130091;1269;107820;-75
2022/02/15 02:45:45;;;;;;;41.20;21.90;;;;;;;0.28;70.07;99631.70;130239;1269;107683;-77
2022/02/15 02:48:51;;;;;;;43.60;22.40;;;;;;;0.26;70.13;99638.84;130034;1269;108788;-76
2022/02/15 02:51:57;;;;;;;39.60;22.50;;;;;;;0.23;70.19;99639.05;130000;1269;107782;-75
2022/02/15 02:55:03;;;;;;;41.30;23.40;;;;;;;0.17;70.26;99638.02;130016;1269;108848;-75
2022/02/15 02:58:09;;;;;;;40.50;22.70;;;;;;;0.15;70.26;99631.66;130134;1269;107690;-76
2022/02/15 03:01:15;;;;;;;42.50;23.00;;;;;;;0.13;70.42;99627.48;130012;1269;107643;-76
2022/02/15 03:04:24;;;;;;;47.00;24.90;;;;;;;0.10;70.52;99631.35;130221;1269;108954;-76
2022/02/15 03:07:29;;;;;;;44.40;24.20;;;;;;;0.07;70.54;99631.17;129984;1269;109116;-80
2022/02/15 03:10:35;;;;;;;43.70;23.00;;;;;;;0.08;70.73;99627.39;129993;1269;107731;-76
2022/02/15 03:13:40;;;;;;;40.20;20.50;;;;;;;0.15;70.50;99631.36;130187;1268;107735;-76
2022/02/15 03:16:52;;;;;;;42.40;22.10;;;;;;;0.23;70.59;99631.67;130327;1268;107667;-73
2022/02/15 03:19:58;;;;;;;40.20;21.70;;;;;;;0.33;70.80;99634.17;130316;1267;107665;-73
2022/02/15 03:23:04;;;;;;;41.60;22.70;;;;;;;0.40;70.59;99633.73;130089;1268;107184;-73
2022/02/15 03:26:09;;;;;;;46.50;24.80;;;;;;;0.44;70.65;99631.50;130104;1268;105790;-73
2022/02/15 03:29:15;;;;;;;42.60;23.50;;;;;;;0.46;70.80;99634.34;130274;1268;107710;-74
2022/02/15 03:32:20;;;;;;;43.10;24.70;;;;;;;0.47;70.73;99632.39;130206;1268;108823;-74
2022/02/15 03:35:26;;;;;;;43.20;24.30;;;;;;;0.42;70.64;99630.40;130247;1268;107681;-75
2022/02/15 03:38:42;;;;;;;42.90;23.40;;;;;;;0.41;70.72;99631.54;130238;1267;108775;-76
2022/02/15 03:45:17;;;;;;;43.10;23.90;;;;;;;0.33;70.87;99627.34;130247;1268;107702;-72
2022/02/15 03:48:55;;;;;;;50.00;27.10;;;;;;;0.29;71.14;99624.43;130180;1267;108845;-78
2022/02/15 03:52:01;;;;;;;50.70;26.60;;;;;;;0.28;71.08;99624.36;130220;1268;107637;-77
2022/02/15 03:55:08;;;;;;;46.50;24.70;;;;;;;0.29;71.15;99622.34;130215;1268;107671;-76
2022/02/15 03:58:15;;;;;;;38.70;21.50;;;;;;;0.36;71.35;99622.91;130239;1268;108853;-76
2022/02/15 04:01:21;;;;;;;45.80;24.40;;;;;;;0.44;71.25;99619.60;130247;1268;107785;-79
2022/02/15 04:04:27;;;;;;;43.80;24.40;;;;;;;0.52;71.21;99622.73;130214;1267;107658;-78
2022/02/15 04:07:33;;;;;;;45.70;24.70;;;;;;;0.57;71.25;99626.09;130170;1268;107887;-77
2022/02/15 04:10:40;;;;;;;45.80;24.90;;;;;;;0.57;71.10;99625.55;130265;1268;108629;-77
2022/02/15 04:13:47;;;;;;;43.50;24.70;;;;;;;0.55;71.27;99623.71;130281;1268;108794;-77
2022/02/15 04:16:53;;;;;;;43.90;24.20;;;;;;;0.53;71.07;99626.52;130428;1268;108851;-77
2022/02/15 04:19:58;;;;;;;43.80;24.50;;;;;;;0.50;71.32;99623.06;130234;1267;109038;-78
2022/02/15 04:23:04;;;;;;;43.00;24.90;;;;;;;0.46;71.32;99621.20;130271;1268;108968;-77
2022/02/15 04:26:10;;;;;;;44.90;25.20;;;;;;;0.41;71.38;99626.98;130225;1268;108801;-77
2022/02/15 04:29:19;;;;;;;46.70;26.10;;;;;;;0.37;71.48;99629.36;130288;1268;108754;-76
2022/02/15 04:32:31;;;;;;;50.70;27.30;;;;;;;0.33;71.50;99632.08;130267;1268;108929;-77
2022/02/15 04:35:37;;;;;;;47.00;26.60;;;;;;;0.30;71.42;99634.91;130290;1268;108852;-77
2022/02/15 04:38:44;;;;;;;46.20;24.80;;;;;;;0.30;71.84;99640.52;130246;1268;109546;-77
2022/02/15 04:41:50;;;;;;;44.30;23.20;;;;;;;0.32;71.54;99641.54;130300;1268;108969;-78
2022/02/15 04:44:57;;;;;;;43.60;23.70;;;;;;;0.38;71.81;99637.48;130262;1268;109001;-78
2022/02/15 04:48:15;;;;;;;48.40;26.20;;;;;;;0.45;71.67;99639.52;130285;1268;108822;-77
2022/02/15 04:51:20;;;;;;;42.30;24.40;;;;;;;0.51;71.75;99642.23;130176;1268;108805;-78
2022/02/15 04:54:28;;;;;;;43.70;24.50;;;;;;;0.52;71.53;99641.61;130262;1268;108888;-78
2022/02/15 04:57:34;;;;;;;42.50;24.30;;;;;;;0.50;71.50;99638.09;130120;1268;108822;-78
2022/02/15 05:00:41;;;;;;;42.20;24.60;;;;;;;0.47;71.61;99633.59;130259;1268;108813;-77
2022/02/15 05:04:02;;;;;;;43.60;24.80;;;;;;;0.46;71.62;99632.23;130274;1268;109155;-77
2022/02/15 05:07:08;;;;;;;45.80;25.20;;;;;;;0.46;71.85;99630.31;130288;1268;108715;-76
2022/02/15 05:10:19;;;;;;;44.30;24.40;;;;;;;0.42;71.90;99626.38;130271;1268;108765;-77
2022/02/15 05:13:26;;;;;;;45.80;24.80;;;;;;;0.40;71.95;99626.50;130312;1268;108958;-77
2022/02/15 05:16:44;;;;;;;47.40;26.30;;;;;;;0.36;72.07;99627.15;130234;1268;108734;-77
2022/02/15 05:19:55;;;;;;;53.20;27.30;;;;;;;0.30;72.14;99633.13;130264;1268;108753;-77
2022/02/15 05:23:01;;;;;;;47.90;26.20;;;;;;;0.27;72.06;99632.09;130233;1268;108803;-78
2022/02/15 05:26:11;;;;;;;45.90;25.10;;;;;;;0.27;72.14;99632.45;130190;1268;109064;-77
2022/02/15 05:29:29;;;;;;;43.20;21.60;;;;;;;0.34;72.21;99632.88;130202;1268;108759;-76
2022/02/15 05:32:43;;;;;;;45.00;24.60;;;;;;;0.43;72.15;99637.33;130272;1268;108961;-76
2022/02/15 05:35:48;;;;;;;47.90;26.20;;;;;;;0.51;72.15;99639.61;130282;1268;108888;-76
2022/02/15 05:38:56;;;;;;;42.50;24.60;;;;;;;0.58;72.23;99637.05;130258;1268;108810;-77
2022/02/15 05:42:03;;;;;;;43.60;25.50;;;;;;;0.66;72.17;99636.65;130238;1268;108692;-80
2022/02/15 05:45:12;;;;;;;45.70;24.70;;;;;;;0.70;72.33;99637.41;130249;1268;109144;-75
2022/02/15 05:48:28;;;;;;;44.60;25.70;;;;;;;0.74;72.18;99635.55;130127;1268;109018;-75
2022/02/15 05:51:38;;;;;;;45.30;25.10;;;;;;;0.77;72.38;99634.32;130100;1268;108764;-75
2022/02/15 05:54:51;;;;;;;44.40;26.20;;;;;;;0.78;72.46;99633.05;130180;1268;108736;-75
2022/02/15 05:57:57;;;;;;;42.30;24.90;;;;;;;0.76;72.50;99626.52;130079;1268;108740;-76
2022/02/15 06:01:03;;;;;;;53.20;27.70;;;;;;;0.72;72.54;99627.33;130298;1268;108288;-75
2022/02/15 06:04:11;;;;;;;46.80;26.10;;;;;;;0.70;72.62;99620.60;130093;1268;107712;-75
2022/02/15 06:07:21;;;;;;;51.20;28.20;;;;;;;0.72;72.64;99619.43;130271;1268;108841;-75
2022/02/15 06:10:27;;;;;;;44.50;23.70;;;;;;;0.79;72.83;99614.92;130248;1268;108842;-75
2022/02/15 06:13:33;;;;;;;45.10;25.00;;;;;;;0.90;72.71;99608.61;130238;1268;108743;-74
2022/02/15 06:16:43;;;;;;;45.20;25.10;;;;;;;0.98;72.81;99610.45;130292;1268;108818;-77
2022/02/15 06:19:54;;;;;;;44.80;24.70;;;;;;;1.06;72.76;99609.73;130342;1268;108827;-76
2022/02/15 06:23:08;;;;;;;45.00;25.20;;;;;;;1.11;72.94;99615.12;130385;1268;108835;-75
2022/02/15 06:26:14;;;;;;;44.60;25.10;;;;;;;1.17;72.86;99621.41;130251;1268;109197;-75
2022/02/15 06:29:38;;;;;;;42.40;24.30;;;;;;;1.17;72.75;99630.31;130232;1268;108896;-75
2022/02/15 06:33:00;;;;;;;46.00;24.80;;;;;;;1.16;72.67;99632.98;130216;1268;108740;-74
2022/02/15 06:36:09;;;;;;;42.70;25.10;;;;;;;1.14;72.80;99632.76;130199;1268;108806;-75
2022/02/15 06:39:15;;;;;;;49.10;25.90;;;;;;;1.12;72.85;99634.73;130167;1269;108794;-74
2022/02/15 06:42:23;;;;;;;49.90;26.80;;;;;;;1.10;72.94;99636.77;130217;1268;108995;-75
2022/02/15 06:45:29;;;;;;;45.20;25.30;;;;;;;1.10;72.89;99643.95;130174;1268;108808;-75
2022/02/15 06:48:35;;;;;;;38.60;21.70;;;;;;;1.14;72.98;99642.58;130252;1268;108863;-75
2022/02/15 06:51:42;;;;;;;48.80;26.60;;;;;;;1.24;73.14;99648.07;130258;1268;108818;-73
2022/02/15 06:54:51;;;;;;;52.20;27.50;;;;;;;1.32;72.84;99657.80;130233;1268;108723;-74
2022/02/15 06:58:00;;;;;;;45.50;25.40;;;;;;;1.41;72.86;99659.46;130401;1268;108881;-75
2022/02/15 07:01:05;;;;;;;47.20;26.30;;;;;;;1.47;72.88;99664.62;130300;1268;108842;-75
2022/02/15 07:04:12;;;;;;;51.20;28.50;;;;;;;1.52;72.81;99673.23;130355;1268;107835;-74
2022/02/15 07:07:18;;;;;;;44.20;26.30;;;;;;;1.57;72.93;99677.40;130368;1267;108758;-74
2022/02/15 07:10:28;;;;;;;47.70;27.80;;;;;;;1.60;72.81;99673.59;130273;1268;108732;-73
2022/02/15 07:13:37;;;;;;;59.00;32.00;;;;;;;1.62;72.95;99678.65;130219;1268;109159;-75
2022/02/15 07:16:44;;;;;;;50.20;28.50;;;;;;;1.65;72.85;99680.56;130293;1268;108694;-75
2022/02/15 07:19:51;;;;;;;49.30;27.30;;;;;;;1.67;72.90;99683.90;130126;1267;107708;-75
2022/02/15 07:22:59;;;;;;;49.50;27.40;;;;;;;1.71;73.00;99676.26;130224;1268;108829;-78
2022/02/15 07:26:40;;;;;;;41.10;23.30;;;;;;;1.82;73.04;99669.36;129675;1270;108814;-76
2022/02/15 07:29:49;;;;;;;44.60;25.60;;;;;;;1.94;72.98;99668.61;130204;1268;108928;-74
2022/02/15 07:33:00;;;;;;;42.60;25.70;;;;;;;2.06;72.97;99662.30;130207;1268;108824;-75
2022/02/15 07:36:06;;;;;;;43.20;26.30;;;;;;;2.17;72.92;99666.27;130294;1268;109202;-75
2022/02/15 07:39:12;;;;;;;44.70;26.90;;;;;;;2.27;72.84;99662.35;130257;1268;108697;-75
2022/02/15 07:42:17;;;;;;;46.30;27.00;;;;;;;2.32;72.82;99661.92;130215;1268;108810;-76
2022/02/15 07:45:25;;;;;;;45.00;26.60;;;;;;;2.36;72.88;99653.73;130248;1268;108717;-76
2022/02/15 07:48:30;;;;;;;45.60;26.20;;;;;;;2.43;72.79;99653.92;130273;1268;108955;-74
2022/02/15 07:51:36;;;;;;;50.80;29.40;;;;;;;2.55;72.93;99645.15;130241;1268;108838;-75
2022/02/15 07:54:41;;;;;;;49.20;27.40;;;;;;;2.70;72.97;99639.58;130230;1268;108775;-78
2022/02/15 07:57:48;;;;;;;41.10;24.10;;;;;;;2.86;73.02;99638.94;130206;1268;108729;-75
2022/02/15 08:00:53;;;;;;;43.70;26.00;;;;;;;3.02;72.81;99637.48;130307;1268;108998;-75
2022/02/15 08:04:00;;;;;;;46.40;27.50;;;;;;;3.21;72.80;99644.42;130248;1268;108863;-76
2022/02/15 08:07:07;;;;;;;44.40;26.40;;;;;;;3.36;72.57;99637.76;130258;1268;108701;-74
2022/02/15 08:10:13;;;;;;;47.70;28.40;;;;;;;3.48;72.42;99627.36;130292;1268;108861;-76
2022/02/15 08:13:21;;;;;;;45.10;27.90;;;;;;;3.58;72.37;99634.10;130258;1268;108916;-75
2022/02/15 08:16:26;;;;;;;51.50;31.50;;;;;;;3.63;72.47;99636.48;130287;1268;107687;-76
2022/02/15 08:19:32;;;;;;;45.40;27.40;;;;;;;3.69;72.25;99642.56;130282;1268;108881;-76
2022/02/15 08:22:39;;;;;;;42.90;27.00;;;;;;;3.73;72.17;99664.86;130305;1268;108708;-75
2022/02/15 08:25:45;;;;;;;47.50;28.90;;;;;;;3.80;72.09;99677.35;130220;1268;108670;-76
2022/02/15 08:28:50;;;;;;;49.50;28.90;;;;;;;3.87;72.33;99681.55;130281;1268;108765;-75
2022/02/15 08:31:56;;;;;;;47.80;29.30;;;;;;;3.93;72.17;99684.75;130242;1268;108885;-76
2022/02/15 08:35:01;;;;;;;48.80;28.50;;;;;;;3.98;72.21;99689.67;130228;1268;108807;-74
2022/02/15 08:38:07;;;;;;;44.80;26.80;;;;;;;4.04;72.20;99690.02;130190;1268;108903;-73
2022/02/15 08:41:14;;;;;;;45.80;26.90;;;;;;;4.13;72.13;99695.96;130218;1268;108731;-75
2022/02/15 08:44:19;;;;;;;78.30;37.90;;;;;;;4.23;71.97;99698.99;130186;1269;108782;-76
2022/02/15 08:47:25;;;;;;;91.40;43.40;;;;;;;4.34;71.93;99703.23;130196;1268;108732;-75
2022/02/15 08:50:32;;;;;;;63.40;35.20;;;;;;;4.47;71.89;99697.46;130220;1268;108644;-76
2022/02/15 08:53:38;;;;;;;57.30;32.20;;;;;;;4.55;71.86;99687.25;130293;1268;108702;-75
2022/02/15 08:56:44;;;;;;;48.40;29.10;;;;;;;4.62;71.77;99695.83;130263;1269;108670;-74
2022/02/15 08:59:53;;;;;;;48.00;28.70;;;;;;;4.68;71.68;99697.60;130230;1268;108889;-76
2022/02/15 09:02:58;;;;;;;45.10;27.90;;;;;;;4.72;71.49;99692.89;130212;1270;108755;-78
2022/02/15 09:06:04;;;;;;;46.00;28.20;;;;;;;4.77;71.54;99689.67;130209;1268;108799;-75
2022/02/15 09:09:12;;;;;;;46.70;28.30;;;;;;;4.83;71.50;99691.08;130223;1268;108536;-74
2022/02/15 09:12:18;;;;;;;43.20;27.90;;;;;;;4.85;71.37;99694.61;130248;1268;108519;-75
2022/02/15 09:15:23;;;;;;;46.70;28.70;;;;;;;4.85;71.38;99702.30;130212;1268;108836;-74
2022/02/15 09:18:28;;;;;;;43.50;27.20;;;;;;;4.90;71.32;99698.77;130206;1268;108694;-74
2022/02/15 09:21:34;;;;;;;50.70;31.80;;;;;;;4.95;71.27;99695.90;130189;1268;108844;-75
2022/02/15 09:24:39;;;;;;;45.50;28.10;;;;;;;4.97;71.22;99703.23;130272;1268;108973;-76
2022/02/15 09:27:45;;;;;;;42.60;26.00;;;;;;;5.03;71.27;99702.38;130257;1268;108974;-77
2022/02/15 09:30:54;;;;;;;44.60;27.30;;;;;;;5.13;71.19;99703.84;130230;1268;108755;-75
2022/02/15 09:33:59;;;;;;;46.40;28.10;;;;;;;5.28;71.15;99703.64;130206;1270;107554;-76
2022/02/15 09:37:05;;;;;;;46.10;28.20;;;;;;;5.43;70.97;99700.16;130232;1268;107636;-74
2022/02/15 09:40:12;;;;;;;43.40;27.80;;;;;;;5.61;71.00;99693.84;130209;1270;108724;-75
2022/02/15 09:43:18;;;;;;;46.10;29.10;;;;;;;5.78;70.75;99690.82;130248;1268;108480;-75
2022/02/15 09:46:26;;;;;;;42.30;27.20;;;;;;;5.91;70.59;99694.94;130243;1268;108968;-74
2022/02/15 09:49:50;;;;;;;48.10;29.20;;;;;;;5.99;70.63;99700.73;130276;1268;109686;-77
2022/02/15 09:52:56;;;;;;;42.90;28.60;;;;;;;6.06;70.42;99704.70;130269;1268;108623;-75
2022/02/15 09:56:02;;;;;;;47.70;29.60;;;;;;;6.13;70.28;99708.58;130237;1270;107702;-77
2022/02/15 09:59:07;;;;;;;42.80;27.70;;;;;;;6.16;70.12;99715.35;130287;1268;108810;-76
2022/02/15 10:02:19;;;;;;;43.50;28.70;;;;;;;6.18;70.14;99713.88;130173;1268;108730;-75
2022/02/15 10:05:31;;;;;;;42.50;28.60;;;;;;;6.22;70.08;99706.60;130236;1268;109131;-75
2022/02/15 10:08:37;;;;;;;46.50;29.40;;;;;;;6.28;70.05;99696.59;130222;1268;108853;-75
2022/02/15 10:11:44;;;;;;;44.50;29.10;;;;;;;6.35;69.81;99692.74;130222;1268;108720;-75
2022/02/15 10:14:52;;;;;;;46.20;29.20;;;;;;;6.41;69.73;99689.40;130260;1268;107678;-74
2022/02/15 10:18:06;;;;;;;44.90;28.80;;;;;;;6.47;69.86;99689.89;130273;1268;109049;-76
2022/02/15 10:21:17;;;;;;;50.10;30.10;;;;;;;6.53;69.55;99694.33;130225;1268;106097;-77
2022/02/15 10:24:24;;;;;;;44.90;29.20;;;;;;;6.62;69.74;99690.85;130232;1268;108856;-75
2022/02/15 10:27:31;;;;;;;44.20;28.20;;;;;;;6.71;69.50;99690.15;130162;1270;160568;-77
2022/02/15 10:30:42;;;;;;;44.60;29.40;;;;;;;6.81;69.45;99687.84;130259;1269;108847;-75
2022/02/15 10:33:50;;;;;;;43.90;28.70;;;;;;;6.88;69.47;99688.05;130177;1268;108824;-73
2022/02/15 10:37:01;;;;;;;47.40;30.20;;;;;;;6.94;69.56;99692.08;130234;1269;108861;-76
2022/02/15 10:40:08;;;;;;;46.10;29.90;;;;;;;7.03;69.50;99697.98;130262;1270;108891;-76
2022/02/15 10:43:14;;;;;;;44.80;30.00;;;;;;;7.08;69.58;99699.46;130255;1268;108680;-75
2022/02/15 10:46:22;;;;;;;46.60;29.40;;;;;;;7.10;69.47;99703.84;130171;1269;108836;-74
2022/02/15 10:49:28;;;;;;;46.80;31.00;;;;;;;7.09;69.44;99707.84;130237;1268;108548;-74
2022/02/15 10:52:34;;;;;;;46.90;29.90;;;;;;;7.10;69.48;99707.41;130272;1268;108705;-76
2022/02/15 10:55:40;;;;;;;45.20;30.40;;;;;;;7.09;69.42;99710.33;130261;1269;108871;-76
2022/02/15 10:58:46;;;;;;;45.20;28.70;;;;;;;7.07;69.45;99711.70;130273;1270;109859;-75
2022/02/15 11:01:52;;;;;;;43.70;28.50;;;;;;;7.05;69.43;99708.59;130256;1270;108041;-76
2022/02/15 11:05:01;;;;;;;47.00;29.30;;;;;;;7.03;69.10;99709.44;130284;1268;108635;-76
2022/02/15 11:08:07;;;;;;;45.10;29.40;;;;;;;7.00;69.20;99713.88;130277;1268;109585;-76
2022/02/15 11:11:17;;;;;;;42.60;28.60;;;;;;;6.96;69.31;99718.59;130193;1268;108688;-75
2022/02/15 11:14:23;;;;;;;46.10;30.20;;;;;;;6.93;69.24;99717.12;130105;1269;108704;-74
2022/02/15 11:17:29;;;;;;;45.90;29.40;;;;;;;6.89;69.24;99717.70;130167;1269;108790;-74
2022/02/15 11:24:01;;;;;;;45.90;30.00;;;;;;;6.73;69.15;99726.23;130169;1269;108792;-74
2022/02/15 11:27:15;;;;;;;53.90;32.00;;;;;;;6.62;69.08;99728.48;130158;1269;108925;-76
2022/02/15 11:30:23;;;;;;;57.00;36.60;;;;;;;6.52;69.19;99733.61;130083;1269;108688;-74
2022/02/15 11:33:29;;;;;;;89.80;48.40;;;;;;;6.44;69.21;99731.48;130041;1269;108704;-77
2022/02/15 11:36:44;;;;;;;56.80;34.20;;;;;;;6.38;69.11;99729.11;130012;1269;107366;-76
2022/02/15 11:40:07;;;;;;;185.20;97.40;;;;;;;6.31;69.21;99729.16;130118;1269;108751;-76
2022/02/15 11:43:18;;;;;;;134.70;67.70;;;;;;;6.26;69.29;99730.98;130163;1269;108672;-75
2022/02/15 11:46:31;;;;;;;72.30;38.70;;;;;;;6.28;69.20;99732.02;130220;1270;108163;-76
2022/02/15 11:49:37;;;;;;;63.60;34.50;;;;;;;6.34;69.32;99736.28;130137;1269;108849;-74
2022/02/15 11:52:43;;;;;;;50.70;29.30;;;;;;;6.44;68.94;99734.89;130070;1269;108762;-76
2022/02/15 11:55:50;;;;;;;55.50;33.10;;;;;;;6.57;68.93;99730.81;130053;1269;107326;-75
2022/02/15 11:58:57;;;;;;;59.50;33.90;;;;;;;6.73;68.86;99729.06;129996;1269;108688;-76
2022/02/15 12:02:06;;;;;;;54.10;33.00;;;;;;;6.89;68.64;99730.04;130138;1269;108802;-75
2022/02/15 12:05:12;;;;;;;58.60;36.00;;;;;;;7.03;68.64;99723.58;130045;1269;107572;-75
2022/02/15 12:08:24;;;;;;;52.10;32.60;;;;;;;7.17;68.85;99721.59;130052;1270;108830;-75
2022/02/15 12:11:35;;;;;;;65.50;38.10;;;;;;;7.28;68.52;99723.40;130071;1268;108779;-74
2022/02/15 12:14:41;;;;;;;52.80;32.70;;;;;;;7.32;68.22;99726.94;130289;1268;108827;-75
2022/02/15 12:17:49;;;;;;;58.60;36.50;;;;;;;7.34;68.37;99722.70;130245;1270;108880;-76
2022/02/15 12:20:56;;;;;;;57.20;35.60;;;;;;;7.43;68.49;99721.61;130194;1268;108714;-76
2022/02/15 12:24:03;;;;;;;55.20;35.10;;;;;;;7.58;68.31;99721.30;130232;1268;108793;-76
2022/02/15 12:27:22;;;;;;;53.50;32.50;;;;;;;7.66;68.32;99715.68;130130;1268;108714;-76
2022/02/15 12:30:27;;;;;;;52.10;32.00;;;;;;;7.70;68.23;99717.29;130337;1268;108603;-75
2022/02/15 12:33:37;;;;;;;48.90;29.80;;;;;;;7.60;67.84;99714.88;130230;1268;108937;-76
2022/02/15 12:36:42;;;;;;;46.90;29.60;;;;;;;7.50;67.92;99717.06;130227;1269;108805;-76
2022/02/15 12:39:51;;;;;;;59.90;34.70;;;;;;;7.43;68.13;99718.67;130249;1268;108798;-76
2022/02/15 12:42:56;;;;;;;46.30;29.90;;;;;;;7.38;68.37;99716.80;130318;1268;108778;-76
2022/02/15 12:46:03;;;;;;;44.30;28.50;;;;;;;7.34;68.04;99723.58;130252;1268;108882;-77
2022/02/15 12:49:09;;;;;;;46.40;27.90;;;;;;;7.30;68.36;99720.03;130147;1268;108481;-75
2022/02/15 12:52:15;;;;;;;44.80;28.40;;;;;;;7.28;68.49;99719.29;130270;1268;108156;-75
2022/02/15 12:55:22;;;;;;;45.60;28.30;;;;;;;7.31;68.24;99713.73;130236;1268;108672;-75
2022/02/15 12:58:31;;;;;;;47.40;28.30;;;;;;;7.35;68.47;99714.46;130292;1268;108633;-75
2022/02/15 13:01:38;;;;;;;44.50;27.30;;;;;;;7.38;68.33;99712.73;130255;1269;108897;-78
2022/02/15 13:04:49;;;;;;;42.60;26.90;;;;;;;7.40;68.47;99710.77;130265;1268;109513;-77
2022/02/15 13:07:55;;;;;;;41.00;27.00;;;;;;;7.41;68.17;99712.29;130212;1270;108492;-76
2022/02/15 13:11:01;;;;;;;43.50;28.10;;;;;;;7.38;68.13;99712.94;130328;1269;108675;-76
2022/02/15 13:14:07;;;;;;;39.80;25.50;;;;;;;7.34;68.07;99715.44;130271;1270;108754;-76
2022/02/15 13:17:13;;;;;;;41.80;25.80;;;;;;;7.30;68.23;99716.66;130290;1270;107713;-76
2022/02/15 13:20:21;;;;;;;41.00;25.60;;;;;;;7.29;68.08;99720.30;130281;1268;108676;-76
2022/02/15 13:23:27;;;;;;;40.20;25.70;;;;;;;7.33;68.37;99726.16;130517;1268;108759;-76
2022/02/15 13:26:37;;;;;;;42.00;25.90;;;;;;;7.34;68.04;99732.61;130943;1268;108709;-75
2022/02/15 13:29:42;;;;;;;38.90;25.80;;;;;;;7.31;68.16;99737.61;130292;1268;108715;-75
2022/02/15 13:32:57;;;;;;;41.40;26.40;;;;;;;7.32;68.13;99739.11;130341;1267;109173;-75
2022/02/15 13:36:03;;;;;;;57.50;33.80;;;;;;;7.32;68.34;99741.27;130379;1268;107767;-74
2022/02/15 13:39:09;;;;;;;51.00;32.40;;;;;;;7.32;68.24;99740.06;130315;1270;108990;-76
2022/02/15 13:42:15;;;;;;;43.10;25.80;;;;;;;7.30;67.99;99736.36;130352;1268;108930;-74
2022/02/15 13:45:21;;;;;;;45.40;28.70;;;;;;;7.28;68.20;99738.59;130460;1268;108718;-77
2022/02/15 13:48:27;;;;;;;168.90;94.80;;;;;;;7.27;68.07;99737.17;130351;1268;108843;-76
2022/02/15 13:51:32;;;;;;;64.50;36.60;;;;;;;7.26;68.15;99745.83;130282;1270;108638;-76
2022/02/15 13:54:38;;;;;;;68.10;36.20;;;;;;;7.30;68.29;99747.97;130326;1268;108743;-77
2022/02/15 13:57:44;;;;;;;47.50;28.30;;;;;;;7.39;68.14;99747.99;130426;1268;107734;-76
2022/02/15 14:00:49;;;;;;;40.40;24.90;;;;;;;7.54;68.21;99748.05;130386;1268;107924;-75
2022/02/15 14:03:55;;;;;;;40.20;24.60;;;;;;;7.61;68.14;99749.09;130421;1268;107539;-76
2022/02/15 14:07:02;;;;;;;36.80;23.20;;;;;;;7.65;68.11;99752.84;130390;1268;107777;-75
2022/02/15 14:10:10;;;;;;;42.40;25.70;;;;;;;7.66;68.17;99757.65;130407;1268;109003;-76
2022/02/15 14:13:15;;;;;;;47.60;28.30;;;;;;;7.66;67.94;99758.55;130440;1268;108803;-76
2022/02/15 14:16:22;;;;;;;49.60;30.40;;;;;;;7.66;67.99;99762.46;130248;1268;108688;-74
2022/02/15 14:19:28;;;;;;;43.30;25.50;;;;;;;7.67;67.88;99758.65;130215;1268;108940;-74
2022/02/15 14:22:33;;;;;;;40.90;26.70;;;;;;;7.67;67.90;99764.65;130232;1268;106659;-76